createdAt,value
2023-03-05T00:00:12.064Z,19.48
2023-03-05T00:03:17.757Z,16.10
2023-03-05T00:06:21.571Z,15.15
2023-03-05T00:09:24.553Z,13.57
2023-03-05T00:12:27.378Z,15.68
2023-03-05T00:15:30.048Z,17.20
2023-03-05T00:18:32.919Z,18.53
2023-03-05T00:21:38.509Z,17.77
2023-03-05T00:24:41.189Z,24.75
2023-03-05T00:27:43.792Z,17.90
2023-03-05T00:30:46.924Z,18.35
2023-03-05T00:33:54.133Z,19.03
2023-03-05T00:36:56.885Z,18.23
2023-03-05T00:40:00.552Z,15.40
2023-03-05T00:43:03.205Z,14.95
2023-03-05T00:46:05.966Z,15.20
2023-03-05T00:49:08.581Z,20.30
2023-03-05T00:52:11.727Z,21.90
2023-03-05T00:55:14.426Z,22.42
2023-03-05T00:58:17.304Z,14.93
2023-03-05T01:01:20.391Z,14.45
2023-03-05T01:04:24.482Z,13.23
2023-03-05T01:07:27.142Z,11.52
2023-03-05T01:10:30.343Z,18.08
2023-03-05T01:13:33.308Z,15.63
2023-03-05T01:16:36.025Z,10.65
2023-03-05T01:19:46.704Z,18.73
2023-03-05T01:22:49.794Z,19.35
2023-03-05T01:25:57.174Z,18.88
2023-03-05T01:29:00.354Z,16.75
2023-03-05T01:32:03.446Z,20.42
2023-03-05T01:35:06.852Z,13.27
2023-03-05T01:38:09.659Z,23.63
2023-03-05T01:41:13.247Z,20.98
2023-03-05T01:44:25.739Z,17.98
2023-03-05T01:47:28.660Z,27.13
2023-03-05T01:50:31.400Z,24.23
2023-03-05T01:53:34.337Z,33.88
2023-03-05T01:56:38.414Z,28.08
2023-03-05T01:59:42.226Z,17.42
2023-03-05T02:02:48.219Z,33.70
2023-03-05T02:05:50.849Z,31.00
2023-03-05T02:08:53.866Z,17.48
2023-03-05T02:11:56.686Z,22.58
2023-03-05T02:14:59.592Z,17.58
2023-03-05T02:18:02.505Z,18.40
2023-03-05T02:21:09.646Z,19.77
2023-03-05T02:24:14.311Z,28.65
2023-03-05T02:27:17.922Z,21.63
2023-03-05T02:30:20.751Z,23.15
2023-03-05T02:33:24.575Z,22.92
2023-03-05T02:36:27.301Z,27.60
2023-03-05T02:39:33.588Z,27.52
2023-03-05T02:42:36.509Z,24.33
2023-03-05T02:45:39.648Z,19.30
2023-03-05T02:48:42.426Z,21.40
2023-03-05T02:51:47.780Z,15.53
2023-03-05T02:54:50.598Z,15.73
2023-03-05T02:57:53.227Z,14.52
2023-03-05T03:00:56.239Z,9.85
2023-03-05T03:03:59.425Z,13.52
2023-03-05T03:07:02.117Z,14.47
2023-03-05T03:10:05.584Z,14.02
2023-03-05T03:13:08.251Z,14.57
2023-03-05T03:16:13.074Z,15.10
2023-03-05T03:19:16.357Z,12.20
2023-03-05T03:22:18.983Z,18.13
2023-03-05T03:25:23.209Z,17.70
2023-03-05T03:28:28.017Z,13.85
2023-03-05T03:31:30.682Z,14.60
2023-03-05T03:34:33.490Z,15.20
2023-03-05T03:37:36.531Z,23.70
2023-03-05T03:40:39.812Z,30.23
2023-03-05T03:43:42.510Z,21.98
2023-03-05T03:46:48.902Z,24.25
2023-03-05T03:49:55.145Z,27.25
2023-03-05T03:52:57.751Z,21.27
2023-03-05T03:56:00.459Z,19.38
2023-03-05T03:59:03.247Z,17.40
2023-03-05T04:02:06.239Z,17.42
2023-03-05T04:05:09.342Z,16.83
2023-03-05T04:08:12.754Z,14.83
2023-03-05T04:11:16.148Z,18.05
2023-03-05T04:14:19.094Z,19.17
2023-03-05T04:17:21.786Z,18.75
2023-03-05T04:20:24.408Z,20.50
2023-03-05T04:23:27.292Z,15.17
2023-03-05T04:26:29.857Z,14.57
2023-03-05T04:29:33.817Z,17.38
2023-03-05T04:32:36.868Z,17.25
2023-03-05T04:35:39.562Z,20.95
2023-03-05T04:38:42.271Z,18.67
2023-03-05T04:41:44.958Z,16.17
2023-03-05T04:44:49.254Z,19.90
2023-03-05T04:47:52.016Z,22.02
2023-03-05T04:50:54.687Z,19.58
2023-03-05T04:53:57.311Z,15.87
2023-03-05T04:57:00.098Z,15.05
2023-03-05T05:00:06.980Z,17.50
2023-03-05T05:03:09.568Z,16.05
2023-03-05T05:06:12.341Z,16.10
2023-03-05T05:09:15.790Z,17.67
2023-03-05T05:12:18.418Z,18.10
2023-03-05T05:15:21.345Z,15.65
2023-03-05T05:18:24.685Z,16.20
2023-03-05T05:21:27.482Z,12.07
2023-03-05T05:24:30.179Z,16.57
2023-03-05T05:27:33.141Z,18.33
2023-03-05T05:30:35.837Z,18.65
2023-03-05T05:33:39.536Z,15.43
2023-03-05T05:36:42.222Z,12.73
2023-03-05T05:39:50.174Z,16.87
2023-03-05T05:42:52.845Z,18.88
2023-03-05T05:45:55.680Z,19.20
2023-03-05T05:48:58.436Z,11.95
2023-03-05T05:52:01.286Z,17.15
2023-03-05T05:55:04.194Z,21.90
2023-03-05T05:58:06.910Z,16.70
2023-03-05T06:01:25.037Z,19.17
2023-03-05T06:04:27.747Z,22.20
2023-03-05T06:07:31.695Z,18.33
2023-03-05T06:10:34.598Z,15.77
2023-03-05T06:13:37.604Z,18.92
2023-03-05T06:16:40.703Z,18.20
2023-03-05T06:19:43.440Z,17.05
2023-03-05T06:22:46.066Z,15.25
2023-03-05T06:25:48.739Z,20.47
2023-03-05T06:28:51.948Z,22.60
2023-03-05T06:31:54.595Z,13.88
2023-03-05T06:34:57.597Z,9.55
2023-03-05T06:38:00.201Z,7.95
2023-03-05T06:41:05.981Z,12.67
2023-03-05T06:44:08.669Z,18.52
2023-03-05T06:47:11.647Z,10.82
2023-03-05T06:50:14.846Z,14.13
2023-03-05T06:53:17.474Z,12.23
2023-03-05T06:56:20.642Z,13.40
2023-03-05T06:59:23.645Z,12.73
2023-03-05T07:02:26.379Z,16.90
2023-03-05T07:05:29.365Z,16.33
2023-03-05T07:08:33.015Z,17.90
2023-03-05T07:11:35.819Z,14.77
2023-03-05T07:14:39.222Z,18.00
2023-03-05T07:17:41.911Z,13.50
2023-03-05T07:20:44.558Z,11.43
2023-03-05T07:23:47.461Z,14.48
2023-03-05T07:26:50.233Z,16.67
2023-03-05T07:29:52.896Z,12.25
2023-03-05T07:32:55.544Z,15.73
2023-03-05T07:35:58.373Z,16.27
2023-03-05T07:39:01.714Z,12.65
2023-03-05T07:42:04.472Z,16.47
2023-03-05T07:45:23.840Z,18.13
2023-03-05T07:48:26.537Z,15.18
2023-03-05T07:51:29.673Z,18.65
2023-03-05T07:54:32.800Z,18.63
2023-03-05T07:57:38.180Z,16.07
2023-03-05T08:00:41.231Z,12.63
2023-03-05T08:03:44.389Z,12.63
2023-03-05T08:06:47.154Z,13.10
2023-03-05T08:09:49.804Z,10.75
2023-03-05T08:12:52.477Z,9.70
2023-03-05T08:15:55.129Z,16.35
2023-03-05T08:18:58.973Z,24.13
2023-03-05T08:22:01.663Z,11.77
2023-03-05T08:25:05.851Z,13.68
2023-03-05T08:28:08.509Z,11.63
2023-03-05T08:31:14.147Z,9.20
2023-03-05T08:34:16.917Z,14.43
2023-03-05T08:37:19.487Z,13.98
2023-03-05T08:40:22.176Z,49.20
2023-03-05T08:43:24.808Z,33.17
2023-03-05T08:46:27.666Z,18.00
2023-03-05T08:49:30.360Z,17.58
2023-03-05T08:52:33.045Z,12.52
2023-03-05T08:55:35.693Z,17.65
2023-03-05T08:58:38.310Z,16.80
2023-03-05T09:01:41.082Z,20.58
2023-03-05T09:04:43.899Z,18.13
2023-03-05T09:07:46.545Z,24.67
2023-03-05T09:10:49.258Z,15.35
2023-03-05T09:13:52.393Z,13.47
2023-03-05T09:16:56.048Z,10.15
2023-03-05T09:19:58.712Z,14.23
2023-03-05T09:23:01.754Z,8.98
2023-03-05T09:26:12.322Z,11.68
2023-03-05T09:29:15.184Z,11.40
2023-03-05T09:32:17.856Z,7.38
2023-03-05T09:35:20.565Z,10.43
2023-03-05T09:38:23.437Z,11.02
2023-03-05T09:41:31.701Z,8.10
2023-03-05T09:45:02.478Z,7.17
2023-03-05T09:48:40.736Z,6.88
2023-03-05T09:51:46.875Z,7.03
2023-03-05T09:54:54.947Z,5.32
2023-03-05T09:58:04.528Z,7.07
2023-03-05T10:01:12.154Z,6.17
2023-03-05T10:04:20.881Z,6.88
2023-03-05T10:07:31.482Z,6.45
2023-03-05T10:10:46.266Z,8.10
2023-03-05T10:13:50.686Z,7.18
2023-03-05T10:17:15.832Z,6.90
2023-03-05T10:20:39.760Z,8.05
2023-03-05T10:23:51.058Z,9.77
2023-03-05T10:27:08.815Z,30.55
2023-03-05T10:30:48.495Z,22.30
2023-03-05T10:34:12.692Z,22.23
2023-03-05T10:37:47.245Z,13.02
2023-03-05T10:40:56.143Z,12.15
2023-03-05T10:44:15.416Z,14.57
2023-03-05T10:47:23.999Z,11.55
2023-03-05T10:50:28.906Z,12.70
2023-03-05T10:53:48.996Z,29.60
2023-03-05T10:57:02.479Z,21.73
2023-03-05T11:00:26.290Z,16.88
2023-03-05T11:03:46.937Z,11.18
2023-03-05T11:06:50.096Z,16.70
2023-03-05T11:10:25.396Z,21.67
2023-03-05T11:13:29.272Z,14.95
2023-03-05T11:16:34.580Z,12.45
2023-03-05T11:19:37.833Z,23.10
2023-03-05T11:22:40.648Z,21.60
2023-03-05T11:26:12.292Z,18.70
2023-03-05T11:29:30.464Z,22.48
2023-03-05T11:32:33.144Z,20.15
2023-03-05T11:35:39.023Z,21.73
2023-03-05T11:38:47.429Z,15.13
2023-03-05T11:42:02.229Z,18.48
2023-03-05T11:45:05.500Z,17.95
2023-03-05T11:48:35.282Z,17.15
2023-03-05T11:51:46.922Z,18.00
2023-03-05T11:55:10.838Z,15.13
2023-03-05T11:58:25.635Z,15.27
2023-03-05T12:01:31.519Z,17.05
2023-03-05T12:04:34.530Z,17.48
2023-03-05T12:07:40.836Z,20.67
2023-03-05T12:10:44.248Z,17.00
2023-03-05T12:13:52.172Z,17.50
2023-03-05T12:17:39.840Z,23.27
2023-03-05T12:21:00.986Z,17.08
2023-03-05T12:24:28.115Z,14.32
2023-03-05T12:27:35.752Z,16.10
2023-03-05T12:30:38.286Z,16.85
2023-03-05T12:33:43.060Z,16.15
2023-03-05T12:36:46.444Z,21.80
2023-03-05T12:40:08.651Z,14.23
2023-03-05T12:43:33.920Z,16.50
2023-03-05T12:46:43.132Z,17.05
2023-03-05T12:49:46.963Z,16.85
2023-03-05T12:52:49.872Z,19.50
2023-03-05T12:56:25.046Z,17.75
2023-03-05T13:00:05.494Z,15.43
2023-03-05T13:03:12.837Z,18.42
2023-03-05T13:06:34.238Z,16.83
2023-03-05T13:09:37.095Z,18.50
2023-03-05T13:12:40.107Z,17.90
2023-03-05T13:15:49.814Z,20.43
2023-03-05T13:18:54.034Z,17.90
2023-03-05T13:22:01.829Z,18.48
2023-03-05T13:25:17.074Z,16.83
2023-03-05T13:28:19.756Z,15.52
2023-03-05T13:31:24.641Z,17.63
2023-03-05T13:34:46.619Z,17.00
2023-03-05T13:37:50.262Z,17.08
2023-03-05T13:41:20.245Z,16.92
2023-03-05T13:44:23.146Z,14.88
2023-03-05T13:47:28.844Z,20.70
2023-03-05T13:50:34.743Z,19.40
2023-03-05T13:53:37.527Z,13.43
2023-03-05T13:56:52.864Z,19.65
2023-03-05T13:59:55.673Z,14.88
2023-03-05T14:03:07.431Z,13.43
2023-03-05T14:06:12.158Z,12.35
2023-03-05T14:09:43.149Z,15.95
2023-03-05T14:12:45.964Z,15.25
2023-03-05T14:16:35.773Z,10.27
2023-03-05T14:19:39.452Z,12.63
2023-03-05T14:22:45.409Z,12.48
2023-03-05T14:25:49.069Z,12.20
2023-03-05T14:29:18.807Z,12.77
2023-03-05T14:32:39.856Z,16.05
2023-03-05T14:35:48.858Z,13.27
2023-03-05T14:38:54.065Z,13.20
2023-03-05T14:42:33.671Z,13.27
2023-03-05T14:45:38.684Z,16.50
2023-03-05T14:48:41.727Z,18.95
2023-03-05T14:51:46.189Z,14.83
2023-03-05T14:54:49.316Z,12.63
2023-03-05T14:57:55.926Z,13.50
2023-03-05T15:00:59.324Z,11.57
2023-03-05T15:04:02.244Z,12.05
2023-03-05T15:07:05.315Z,14.13
2023-03-05T15:10:08.850Z,14.20
2023-03-05T15:13:12.891Z,13.80
2023-03-05T15:16:17.614Z,10.50
2023-03-05T15:19:20.676Z,9.13
2023-03-05T15:22:23.527Z,13.73
2023-03-05T15:25:29.400Z,14.38
2023-03-05T15:28:36.947Z,9.23
2023-03-05T15:31:40.682Z,10.85
2023-03-05T15:34:43.664Z,9.68
2023-03-05T15:37:46.402Z,9.17
2023-03-05T15:40:49.873Z,9.35
2023-03-05T15:43:52.930Z,14.13
2023-03-05T15:46:56.927Z,7.90
2023-03-05T15:49:59.837Z,9.48
2023-03-05T15:53:03.435Z,10.70
2023-03-05T15:56:06.737Z,9.88
2023-03-05T15:59:10.330Z,11.05
2023-03-05T16:02:13.738Z,13.73
2023-03-05T16:05:16.739Z,13.23
2023-03-05T16:08:19.643Z,17.10
2023-03-05T16:11:22.707Z,16.50
2023-03-05T16:14:26.781Z,15.07
2023-03-05T16:17:29.788Z,16.98
2023-03-05T16:20:32.977Z,16.38
2023-03-05T16:23:35.995Z,20.37
2023-03-05T16:26:40.473Z,17.58
2023-03-05T16:29:43.963Z,17.10
2023-03-05T16:32:46.691Z,22.10
2023-03-05T16:35:49.373Z,14.63
2023-03-05T16:38:55.351Z,31.03
2023-03-05T16:41:58.616Z,27.48
2023-03-05T16:45:01.819Z,28.02
2023-03-05T16:48:05.419Z,20.90
2023-03-05T16:51:08.904Z,10.38
2023-03-05T16:54:11.546Z,14.47
2023-03-05T16:57:14.517Z,25.42
2023-03-05T17:00:18.809Z,21.35
2023-03-05T17:03:22.563Z,13.82
2023-03-05T17:06:27.613Z,21.67
2023-03-05T17:09:30.693Z,13.10
2023-03-05T17:12:34.090Z,13.57
2023-03-05T17:15:37.312Z,7.38
2023-03-05T17:18:40.325Z,8.82
2023-03-05T17:21:43.742Z,14.88
2023-03-05T17:24:47.544Z,22.53
2023-03-05T17:27:50.644Z,11.98
2023-03-05T17:30:53.670Z,7.00
2023-03-05T17:33:56.702Z,9.80
2023-03-05T17:37:00.573Z,13.88
2023-03-05T17:40:04.153Z,13.27
2023-03-05T17:43:07.411Z,19.75
2023-03-05T17:46:11.192Z,12.88
2023-03-05T17:49:14.813Z,14.23
2023-03-05T17:52:18.284Z,9.88
2023-03-05T17:55:24.737Z,13.13
2023-03-05T17:58:27.589Z,10.65
2023-03-05T18:01:32.972Z,9.35
2023-03-05T18:04:36.079Z,10.68
2023-03-05T18:07:39.343Z,12.00
2023-03-05T18:10:42.490Z,10.17
2023-03-05T18:13:45.476Z,8.95
2023-03-05T18:16:48.860Z,4.68
2023-03-05T18:19:52.322Z,6.15
2023-03-05T18:22:56.068Z,8.45
2023-03-05T18:25:59.054Z,7.50
2023-03-05T18:29:02.000Z,9.45
2023-03-05T18:32:05.236Z,10.40
2023-03-05T18:35:09.340Z,10.23
2023-03-05T18:38:12.221Z,8.90
2023-03-05T18:41:20.632Z,4.57
2023-03-05T18:44:23.661Z,7.65
2023-03-05T18:47:26.269Z,7.72
2023-03-05T18:50:30.163Z,7.97
2023-03-05T18:53:33.160Z,6.57
2023-03-05T18:56:36.193Z,6.20
2023-03-05T18:59:39.287Z,13.02
2023-03-05T19:02:42.162Z,6.97
2023-03-05T19:05:45.148Z,3.72
2023-03-05T19:08:56.752Z,6.45
2023-03-05T19:12:11.098Z,5.97
2023-03-05T19:15:14.302Z,10.80
2023-03-05T19:18:54.069Z,12.57
2023-03-05T19:22:05.676Z,13.02
2023-03-05T19:25:09.726Z,9.02
2023-03-05T19:28:12.615Z,6.37
2023-03-05T19:31:16.266Z,8.30
2023-03-05T19:34:20.738Z,8.48
2023-03-05T19:37:24.169Z,6.55
2023-03-05T19:40:26.860Z,4.97
2023-03-05T19:43:30.185Z,9.57
2023-03-05T19:46:33.303Z,11.48
2023-03-05T19:49:36.327Z,10.02
2023-03-05T19:52:39.556Z,5.60
2023-03-05T19:55:43.225Z,6.97
2023-03-05T19:58:48.868Z,3.83
2023-03-05T20:01:52.446Z,7.15
2023-03-05T20:04:55.549Z,5.78
2023-03-05T20:07:58.932Z,3.08
2023-03-05T20:11:02.191Z,10.25
2023-03-05T20:14:05.422Z,3.43
2023-03-05T20:17:08.131Z,3.08
2023-03-05T20:20:16.503Z,5.68
2023-03-05T20:23:19.604Z,5.88
2023-03-05T20:26:23.735Z,10.10
2023-03-05T20:29:27.358Z,10.03
2023-03-05T20:32:31.137Z,11.15
2023-03-05T20:35:34.156Z,9.20
2023-03-05T20:38:37.228Z,10.35
2023-03-05T20:41:41.117Z,8.30
2023-03-05T20:44:45.013Z,16.23
2023-03-05T20:47:48.806Z,5.65
2023-03-05T20:50:53.354Z,12.90
2023-03-05T20:54:03.395Z,13.80
2023-03-05T20:57:06.554Z,20.65
2023-03-05T21:00:12.346Z,16.97
2023-03-05T21:03:15.803Z,17.65
2023-03-05T21:06:18.704Z,20.27
2023-03-05T21:09:21.636Z,19.00
2023-03-05T21:12:24.604Z,7.93
2023-03-05T21:15:29.000Z,10.43
2023-03-05T21:18:31.989Z,10.98
2023-03-05T21:21:34.913Z,10.02
2023-03-05T21:25:19.388Z,17.35
2023-03-05T21:28:22.624Z,15.40
2023-03-05T21:31:25.443Z,17.30
2023-03-05T21:34:28.432Z,18.13
2023-03-05T21:37:31.764Z,9.00
2023-03-05T21:40:37.884Z,13.40
2023-03-05T21:43:41.198Z,20.13
2023-03-05T21:46:43.903Z,25.60
2023-03-05T21:49:46.812Z,20.52
2023-03-05T21:52:49.951Z,15.57
2023-03-05T21:56:25.462Z,11.07
2023-03-05T21:59:28.361Z,17.65
2023-03-05T22:02:31.852Z,18.80
2023-03-05T22:05:34.430Z,19.65
2023-03-05T22:08:37.116Z,18.15
2023-03-05T22:11:42.717Z,20.33
2023-03-05T22:14:45.321Z,13.45
2023-03-05T22:17:48.164Z,12.37
2023-03-05T22:20:51.857Z,11.85
2023-03-05T22:23:58.373Z,10.95
2023-03-05T22:27:02.034Z,12.45
2023-03-05T22:30:05.616Z,12.40
2023-03-05T22:33:08.332Z,14.70
2023-03-05T22:36:12.035Z,14.30
2023-03-05T22:39:14.529Z,11.75
2023-03-05T22:42:17.271Z,13.65
2023-03-05T22:45:19.983Z,16.27
2023-03-05T22:48:22.555Z,15.10
2023-03-05T22:51:25.111Z,12.55
2023-03-05T22:54:27.701Z,12.07
2023-03-05T22:57:32.417Z,8.80
2023-03-05T23:00:35.125Z,6.72
2023-03-05T23:03:37.890Z,10.73
2023-03-05T23:06:40.528Z,7.47
2023-03-05T23:09:43.553Z,9.18
2023-03-05T23:12:50.029Z,7.35
2023-03-05T23:15:52.710Z,4.10
2023-03-05T23:18:56.195Z,5.30
2023-03-05T23:21:58.814Z,6.22
2023-03-05T23:25:01.408Z,4.47
2023-03-05T23:28:04.227Z,6.88
2023-03-05T23:31:06.948Z,10.20
2023-03-05T23:34:09.691Z,4.97
2023-03-05T23:37:12.343Z,16.42
2023-03-05T23:40:21.133Z,13.93
2023-03-05T23:43:25.159Z,6.55
2023-03-05T23:46:27.902Z,5.82
2023-03-05T23:49:30.639Z,5.17
2023-03-05T23:52:34.111Z,4.28
2023-03-05T23:55:41.475Z,3.22
2023-03-05T23:58:44.096Z,6.60
